Kitanomaru — JD2835 — position and weather

sailwx.info

Track history (hours):
 
Tides and Currents Weather Stations Pressure Air Temp Water Temp Dewpoint Dewpoint Depression Visibility Wind Speed Wind Dir Waves Ship Positions

Kitanomaru

Last reported at 2017-Jan-21 03:27 UTC. Time now 2017-Jan-21 23:37 UTC.
Position N 35°36' E 140°05'.

Length 39 m; draft 4 m.

Type: Tug. MMSI: 431000773.

Date/timePositionNaut miles runAvg speedWind from/ knotsBaromVisibWave heightAir tempDewpointWater temp
2017-Jan-21 03:27N 35°36' E 140°05'9 4.1
2017-Jan-21 01:20N 35°29' E 139°59'0 0.5
2017-Jan-21 00:33N 35°29' E 139°59'0 0.3
2017-Jan-20 23:33N 35°29' E 139°59'10 7.1
2017-Jan-20 22:10N 35°36' E 140°06'10 0.5
2017-Jan-20 01:33N 35°31' E 139°56'1 0.8
2017-Jan-20 00:33N 35°31' E 139°57'1 0.5
2017-Jan-19 23:28N 35°31' E 139°56'6 0.2
2017-Jan-18 23:23N 35°32' E 140°03'1 0.7
2017-Jan-18 21:18N 35°33' E 140°05'7 0.3
2017-Jan-18 01:28N 35°29' E 139°58'0 0.1
2017-Jan-18 00:30N 35°29' E 139°58'2 1.7
2017-Jan-17 23:34N 35°31' E 139°59'2 0.1
2017-Jan-17 06:11N 35°28' E 139°58'2 2.3
2017-Jan-17 05:13N 35°30' E 139°56'1 1.8
2017-Jan-17 04:30N 35°29' E 139°57'0 0.0
2017-Jan-17 03:28N 35°29' E 139°57'2 2.3
2017-Jan-17 02:33N 35°31' E 139°56'1 0.5
2017-Jan-17 01:33N 35°31' E 139°56'2 1.8
2017-Jan-17 00:32N 35°29' E 139°55'6 6.0
2017-Jan-16 23:32N 35°33' E 140°00'6 2.4
2017-Jan-16 21:12N 35°36' E 140°06'1 0.7
2017-Jan-16 20:29N 35°36' E 140°06'0 0.0
2017-Jan-16 13:12N 35°36' E 140°06'0 0.0
2017-Jan-16 11:32N 35°36' E 140°06'0 0.0
2017-Jan-16 10:29N 35°36' E 140°06'0 0.0
2017-Jan-16 09:22N 35°36' E 140°06'0 0.0
2017-Jan-16 08:22N 35°36' E 140°06'7 5.4
2017-Jan-16 07:04N 35°31' E 140°01'4 1.5
2017-Jan-16 04:33N 35°30' E 139°56'1 1.3
2017-Jan-16 03:33N 35°29' E 139°57'0 0.0
2017-Jan-16 02:33N 35°29' E 139°57'0 0.0
2017-Jan-16 01:29N 35°29' E 139°57'0 0.0
2017-Jan-16 00:31N 35°29' E 139°57'4 3.3
2017-Jan-15 23:24N 35°30' E 140°01'7 7.6
2017-Jan-15 22:25N 35°36' E 140°06'0 0.0
2017-Jan-15 21:33N 35°36' E 140°06'0 0.0
2017-Jan-15 20:33N 35°36' E 140°06'0 0.0
2017-Jan-15 14:20N 35°36' E 140°06'0 0.0
2017-Jan-15 13:18N 35°36' E 140°06'0 0.0
2017-Jan-15 11:07N 35°36' E 140°06'0 0.0
2017-Jan-15 09:19N 35°36' E 140°06'0 0.0
2017-Jan-15 08:32N 35°36' E 140°06'10 1.6
2017-Jan-15 02:32N 35°29' E 139°59'0 0.0
2017-Jan-15 01:29N 35°29' E 139°59'10 1.9
2017-Jan-14 20:21N 35°36' E 140°06'10 0.7
2017-Jan-14 05:32N 35°29' E 139°58'1 0.6
2017-Jan-14 03:26N 35°29' E 139°57'10 0.3
2017-Jan-12 23:06N 35°36' E 140°06'0 0.6
2017-Jan-12 22:23N 35°36' E 140°06'2 2.8
2017-Jan-12 21:32N 35°35' E 140°03'3 0.1
2017-Jan-11 18:10N 35°36' E 140°06'0 0.0
2017-Jan-11 16:05N 35°36' E 140°06'0 0.0
2017-Jan-11 10:29N 35°36' E 140°06'0 0.0
2017-Jan-11 09:22N 35°36' E 140°06'0 0.0
2017-Jan-11 08:31N 35°36' E 140°06'0 0.0
2017-Jan-11 07:30N 35°36' E 140°06'0 0.0
2017-Jan-11 06:11N 35°36' E 140°06'0 0.0
2017-Jan-11 05:33N 35°36' E 140°06'  
Track history (hours):
 
Tides and Currents Weather Stations Pressure Air Temp Water Temp Dewpoint Dewpoint Depression Visibility Wind Speed Wind Dir Waves Ship Positions

Kitanomaru

Last reported at 2017-Jan-21 03:27 UTC. Time now 2017-Jan-21 23:37 UTC.
Position N 35°36' E 140°05'.

Length 39 m; draft 4 m.

Type: Tug. MMSI: 431000773.

Date/timePositionNaut miles runAvg speedWind from/ knotsBaromVisibWave heightAir tempDewpointWater temp
2017-Jan-21 03:27N 35°36' E 140°05'9 4.1
2017-Jan-21 01:20N 35°29' E 139°59'0 0.5
2017-Jan-21 00:33N 35°29' E 139°59'0 0.3
2017-Jan-20 23:33N 35°29' E 139°59'10 7.1
2017-Jan-20 22:10N 35°36' E 140°06'10 0.5
2017-Jan-20 01:33N 35°31' E 139°56'1 0.8
2017-Jan-20 00:33N 35°31' E 139°57'1 0.5
2017-Jan-19 23:28N 35°31' E 139°56'6 0.2
2017-Jan-18 23:23N 35°32' E 140°03'1 0.7
2017-Jan-18 21:18N 35°33' E 140°05'7 0.3
2017-Jan-18 01:28N 35°29' E 139°58'0 0.1
2017-Jan-18 00:30N 35°29' E 139°58'2 1.7
2017-Jan-17 23:34N 35°31' E 139°59'2 0.1
2017-Jan-17 06:11N 35°28' E 139°58'2 2.3
2017-Jan-17 05:13N 35°30' E 139°56'1 1.8
2017-Jan-17 04:30N 35°29' E 139°57'0 0.0
2017-Jan-17 03:28N 35°29' E 139°57'2 2.3
2017-Jan-17 02:33N 35°31' E 139°56'1 0.5
2017-Jan-17 01:33N 35°31' E 139°56'2 1.8
2017-Jan-17 00:32N 35°29' E 139°55'6 6.0
2017-Jan-16 23:32N 35°33' E 140°00'6 2.4
2017-Jan-16 21:12N 35°36' E 140°06'1 0.7
2017-Jan-16 20:29N 35°36' E 140°06'0 0.0
2017-Jan-16 13:12N 35°36' E 140°06'0 0.0
2017-Jan-16 11:32N 35°36' E 140°06'0 0.0
2017-Jan-16 10:29N 35°36' E 140°06'0 0.0
2017-Jan-16 09:22N 35°36' E 140°06'0 0.0
2017-Jan-16 08:22N 35°36' E 140°06'7 5.4
2017-Jan-16 07:04N 35°31' E 140°01'4 1.5
2017-Jan-16 04:33N 35°30' E 139°56'1 1.3
2017-Jan-16 03:33N 35°29' E 139°57'0 0.0
2017-Jan-16 02:33N 35°29' E 139°57'0 0.0
2017-Jan-16 01:29N 35°29' E 139°57'0 0.0
2017-Jan-16 00:31N 35°29' E 139°57'4 3.3
2017-Jan-15 23:24N 35°30' E 140°01'7 7.6
2017-Jan-15 22:25N 35°36' E 140°06'0 0.0
2017-Jan-15 21:33N 35°36' E 140°06'0 0.0
2017-Jan-15 20:33N 35°36' E 140°06'0 0.0
2017-Jan-15 14:20N 35°36' E 140°06'0 0.0
2017-Jan-15 13:18N 35°36' E 140°06'0 0.0
2017-Jan-15 11:07N 35°36' E 140°06'0 0.0
2017-Jan-15 09:19N 35°36' E 140°06'0 0.0
2017-Jan-15 08:32N 35°36' E 140°06'10 1.6
2017-Jan-15 02:32N 35°29' E 139°59'0 0.0
2017-Jan-15 01:29N 35°29' E 139°59'10 1.9
2017-Jan-14 20:21N 35°36' E 140°06'10 0.7
2017-Jan-14 05:32N 35°29' E 139°58'1 0.6
2017-Jan-14 03:26N 35°29' E 139°57'10 0.3
2017-Jan-12 23:06N 35°36' E 140°06'0 0.6
2017-Jan-12 22:23N 35°36' E 140°06'2 2.8
2017-Jan-12 21:32N 35°35' E 140°03'3 0.1
2017-Jan-11 18:10N 35°36' E 140°06'0 0.0
2017-Jan-11 16:05N 35°36' E 140°06'0 0.0
2017-Jan-11 10:29N 35°36' E 140°06'0 0.0
2017-Jan-11 09:22N 35°36' E 140°06'0 0.0
2017-Jan-11 08:31N 35°36' E 140°06'0 0.0
2017-Jan-11 07:30N 35°36' E 140°06'0 0.0
2017-Jan-11 06:11N 35°36' E 140°06'0 0.0
2017-Jan-11 05:33N 35°36' E 140°06'  

Dump ship's entire track history